Time;durP1;ratioP1;P1;durP2;ratioP2;P2;SDS_P1;SDS_P2;PMS_P1;PMS_P2;Temp;Humidity;BMP_temperature;BMP_pressure;BME280_temperature;BME280_humidity;BME280_pressure;Samples;Min_cycle;Max_cycle;Signal;HPM_P1;HPM_P2
2023/06/30 00:00:15;;;;;;;5.67;4.40;;;23.40;97.30;;;23.90;nan;100138.50;4994408;28;20598;-67
2023/06/30 00:02:46;;;;;;;4.90;4.37;;;23.40;97.50;;;23.87;nan;100144.25;4991766;28;20597;-67
2023/06/30 00:05:16;;;;;;;9.20;5.57;;;23.40;97.60;;;23.84;nan;100135.84;4975788;28;20606;-67
2023/06/30 00:07:43;;;;;;;8.27;6.20;;;23.30;97.80;;;23.84;nan;100133.19;4991545;28;21220;-68
2023/06/30 00:10:11;;;;;;;7.33;6.13;;;23.30;97.90;;;23.86;nan;100125.81;4992741;28;20633;-69
2023/06/30 00:12:38;;;;;;;6.23;4.90;;;23.30;97.90;;;23.84;nan;100119.88;4991062;28;20649;-67
2023/06/30 00:15:05;;;;;;;6.97;5.80;;;23.30;98.00;;;23.85;nan;100110.88;4992106;28;20618;-67
2023/06/30 00:17:32;;;;;;;7.47;5.80;;;23.40;98.20;;;23.85;nan;100102.88;4990676;28;20674;-67
2023/06/30 00:19:59;;;;;;;6.57;5.83;;;23.30;98.10;;;23.81;nan;100101.63;4993138;28;20630;-67
2023/06/30 00:22:27;;;;;;;7.40;4.90;;;23.30;98.40;;;23.80;nan;100086.69;4990688;28;21386;-68
2023/06/30 00:24:55;;;;;;;7.70;5.30;;;23.30;98.40;;;23.74;nan;100090.19;4997428;28;20639;-68
2023/06/30 00:27:23;;;;;;;8.63;6.10;;;23.30;98.50;;;23.66;nan;100095.75;4991566;28;20665;-67
2023/06/30 00:29:51;;;;;;;6.97;5.30;;;23.20;98.80;;;23.62;nan;100097.16;4967437;28;20654;-66
2023/06/30 00:32:18;;;;;;;6.57;5.17;;;23.10;99.10;;;23.65;nan;100100.25;4975713;28;20734;-66
2023/06/30 00:34:45;;;;;;;4.70;4.30;;;23.10;99.10;;;23.66;nan;100093.06;4998082;28;20629;-68
2023/06/30 00:37:12;;;;;;;7.00;4.60;;;23.10;99.00;;;23.69;nan;100085.47;5000663;28;20662;-66
2023/06/30 00:39:39;;;;;;;4.67;4.27;;;23.20;99.10;;;23.74;nan;100085.69;4991482;28;20638;-67
2023/06/30 00:42:07;;;;;;;11.30;4.90;;;23.20;99.10;;;23.80;nan;100087.50;4990199;28;20672;-68
2023/06/30 00:44:34;;;;;;;5.20;4.70;;;23.20;98.60;;;23.87;nan;100092.81;4989795;28;20638;-67
2023/06/30 00:47:02;;;;;;;4.33;3.77;;;23.30;98.10;;;23.89;nan;100096.09;4976686;28;20676;-67
2023/06/30 00:49:30;;;;;;;5.57;4.00;;;23.40;97.90;;;23.90;nan;100103.88;4989328;28;20642;-67
2023/06/30 00:51:59;;;;;;;5.20;3.87;;;23.40;97.80;;;23.94;nan;100096.28;4989048;28;20646;-68
2023/06/30 00:54:26;;;;;;;4.97;4.17;;;23.40;97.60;;;23.96;nan;100102.22;4996244;28;21204;-67
2023/06/30 00:56:54;;;;;;;6.07;3.80;;;23.40;97.40;;;24.00;nan;100102.63;4980297;28;20674;-68
2023/06/30 00:59:21;;;;;;;9.53;3.20;;;23.40;97.20;;;24.01;nan;100101.59;4991033;28;21170;-67
2023/06/30 01:02:21;;;;;;;3.50;3.20;;;23.50;96.90;;;23.97;nan;100095.03;4988917;28;20642;-67
2023/06/30 01:05:09;;;;;;;3.40;3.10;;;23.50;96.80;;;23.92;nan;100093.81;4992311;28;20641;-67
2023/06/30 01:08:10;;;;;;;4.40;3.10;;;23.40;96.60;;;23.87;nan;100088.28;4991001;28;20674;-67
2023/06/30 01:10:37;;;;;;;3.60;3.30;;;23.40;96.40;;;23.80;nan;100097.34;4987570;28;20630;-67
2023/06/30 01:13:06;;;;;;;3.80;3.50;;;23.30;96.50;;;23.74;nan;100098.19;4983220;28;20649;-68
2023/06/30 01:15:34;;;;;;;4.80;3.53;;;23.30;96.70;;;23.63;nan;100096.16;4980374;28;20641;-67
2023/06/30 01:18:02;;;;;;;3.67;3.37;;;23.20;96.80;;;23.53;nan;100098.41;4989496;28;20599;-67
2023/06/30 01:20:32;;;;;;;4.17;3.20;;;23.10;97.00;;;23.38;nan;100097.81;4987332;28;20665;-66
2023/06/30 01:23:02;;;;;;;3.80;3.50;;;22.90;97.10;;;23.28;nan;100102.69;4990744;28;20622;-67
2023/06/30 01:25:30;;;;;;;4.67;3.60;;;22.80;97.40;;;23.15;nan;100099.00;4996324;28;20625;-67
2023/06/30 01:27:58;;;;;;;4.73;4.27;;;22.80;97.80;;;23.06;nan;100088.78;4991654;28;20982;-67
2023/06/30 01:30:29;;;;;;;3.13;2.90;;;22.70;97.90;;;22.99;nan;100093.25;4996560;28;20638;-66
2023/06/30 01:32:58;;;;;;;4.90;3.03;;;22.60;98.20;;;22.96;nan;100083.00;4990373;28;20692;-67
2023/06/30 01:35:27;;;;;;;3.17;2.87;;;22.50;98.40;;;22.91;nan;100090.78;4978272;28;20642;-67
2023/06/30 01:37:55;;;;;;;4.03;3.10;;;22.50;98.50;;;22.91;nan;100085.47;4958603;28;1150055;-67
2023/06/30 01:40:23;;;;;;;4.00;3.27;;;22.50;98.70;;;22.89;nan;100082.19;4987333;28;20602;-68
2023/06/30 01:42:54;;;;;;;4.77;3.20;;;22.40;98.70;;;22.90;nan;100083.81;4987851;28;20636;-67
2023/06/30 01:45:24;;;;;;;4.10;3.70;;;22.40;98.80;;;22.90;nan;100076.66;4990027;28;21181;-65
2023/06/30 01:47:52;;;;;;;5.50;3.27;;;22.40;98.90;;;22.92;nan;100076.47;4961985;28;21020;-67
2023/06/30 01:50:20;;;;;;;4.50;3.80;;;22.40;99.00;;;22.90;nan;100079.34;4991039;28;21268;-67
2023/06/30 01:52:47;;;;;;;3.53;3.23;;;22.50;99.10;;;22.87;nan;100071.75;4989436;28;20623;-68
2023/06/30 01:55:14;;;;;;;3.80;3.50;;;22.40;99.20;;;22.84;nan;100072.16;4986205;28;20657;-65
2023/06/30 01:57:41;;;;;;;4.10;3.70;;;22.40;99.40;;;22.85;nan;100071.13;4989950;28;20649;-67
2023/06/30 02:00:09;;;;;;;5.10;4.60;;;22.40;99.50;;;22.89;nan;100068.91;4986355;28;21205;-68
2023/06/30 02:02:36;;;;;;;5.27;4.30;;;22.40;99.50;;;22.93;nan;100070.13;4986523;28;20642;-67
2023/06/30 02:05:03;;;;;;;6.83;4.50;;;22.40;99.50;;;23.01;nan;100069.94;4967496;28;20619;-68
2023/06/30 02:07:30;;;;;;;5.30;4.27;;;22.50;99.40;;;23.10;nan;100069.53;4987986;28;21004;-66
2023/06/30 02:09:57;;;;;;;6.83;4.77;;;22.60;99.30;;;23.13;nan;100069.09;4984072;28;20649;-67
2023/06/30 02:12:24;;;;;;;6.17;5.17;;;22.60;99.30;;;23.20;nan;100068.28;4985921;28;20653;-67
2023/06/30 02:14:51;;;;;;;4.20;3.80;;;22.70;99.30;;;23.18;nan;100068.50;4972207;28;20625;-67
2023/06/30 02:17:27;;;;;;;4.00;3.40;;;22.70;99.40;;;23.14;nan;100070.75;4988179;28;20670;-67
2023/06/30 02:19:54;;;;;;;7.43;3.93;;;22.70;99.60;;;23.11;nan;100060.50;4988656;28;20630;-67
2023/06/30 02:22:21;;;;;;;7.97;3.50;;;22.60;99.70;;;23.10;nan;100063.38;4989839;28;20622;-67
2023/06/30 02:24:48;;;;;;;3.97;3.57;;;22.70;99.90;;;23.08;nan;100068.88;4985781;28;20639;-67
2023/06/30 02:27:19;;;;;;;3.00;2.80;;;22.60;99.90;;;23.05;nan;100060.50;4985985;28;21237;-68
2023/06/30 02:29:46;;;;;;;4.40;3.80;;;22.60;99.90;;;23.03;nan;100062.56;4989610;28;20602;-68
2023/06/30 02:32:13;;;;;;;3.67;3.40;;;22.60;99.90;;;23.05;nan;100066.66;4989601;28;20642;-67
2023/06/30 02:34:40;;;;;;;4.70;3.50;;;22.60;99.90;;;23.01;nan;100062.78;4989334;28;20629;-67
2023/06/30 02:37:07;;;;;;;3.60;3.30;;;22.50;99.90;;;23.01;nan;100059.28;4992176;28;20692;-67
2023/06/30 02:39:34;;;;;;;3.80;3.23;;;22.50;99.90;;;22.98;nan;100057.84;4994174;28;20634;-67
2023/06/30 02:42:01;;;;;;;4.60;3.70;;;22.50;99.90;;;22.96;nan;100056.41;4992838;28;20638;-67
2023/06/30 02:44:27;;;;;;;3.80;3.37;;;22.50;99.90;;;22.93;nan;100068.28;4989329;28;20960;-67
2023/06/30 02:46:55;;;;;;;4.57;3.47;;;22.50;99.90;;;22.91;nan;100064.19;4988907;28;21253;-67
2023/06/30 02:49:23;;;;;;;3.87;3.03;;;22.40;99.90;;;22.88;nan;100060.09;4973596;28;20598;-68
2023/06/30 02:51:50;;;;;;;2.83;2.60;;;22.40;99.90;;;22.84;nan;100060.69;4989515;28;20657;-69
2023/06/30 02:54:17;;;;;;;3.57;3.23;;;22.40;99.90;;;22.78;nan;100065.00;4989824;28;20645;-66
2023/06/30 02:56:44;;;;;;;3.13;2.93;;;22.30;99.90;;;22.72;nan;100063.13;4988299;28;20686;-67
2023/06/30 02:59:11;;;;;;;4.40;3.53;;;22.30;99.90;;;22.66;nan;100077.22;4991074;28;20622;-67
2023/06/30 03:01:41;;;;;;;4.00;3.10;;;22.20;99.90;;;22.61;nan;100078.88;4989378;28;20676;-68
2023/06/30 03:04:08;;;;;;;3.50;2.90;;;22.10;99.90;;;22.57;nan;100083.75;4990090;28;20603;-68
2023/06/30 03:06:36;;;;;;;7.20;3.47;;;22.10;99.90;;;22.50;nan;100079.41;4997953;28;20658;-68
2023/06/30 03:09:03;;;;;;;3.20;2.90;;;22.00;99.90;;;22.43;nan;100076.72;4988474;28;20640;-69
2023/06/30 03:11:30;;;;;;;5.40;3.37;;;21.90;99.90;;;22.39;nan;100078.16;4982186;28;20633;-68
2023/06/30 03:13:57;;;;;;;3.27;2.97;;;22.00;99.90;;;22.37;nan;100074.88;4975536;28;20654;-68
2023/06/30 03:16:24;;;;;;;7.90;3.33;;;21.90;99.90;;;22.33;nan;100071.81;4975933;28;21227;-68
2023/06/30 03:18:52;;;;;;;4.30;3.17;;;21.90;99.90;;;22.27;nan;100063.81;4987148;28;20634;-68
2023/06/30 03:21:20;;;;;;;4.10;3.70;;;21.90;99.90;;;22.24;nan;100059.72;4969429;28;20718;-68
2023/06/30 03:23:47;;;;;;;4.90;3.70;;;21.80;99.90;;;22.25;nan;100069.31;4970664;28;20661;-68
2023/06/30 03:26:14;;;;;;;3.07;2.80;;;21.80;99.90;;;22.25;nan;100073.81;5002809;28;20672;-68
2023/06/30 03:28:41;;;;;;;2.80;2.60;;;21.80;99.90;;;22.25;nan;100079.94;4993734;28;20665;-67
2023/06/30 03:31:08;;;;;;;2.93;2.73;;;21.80;99.90;;;22.22;nan;100080.34;4990367;28;20634;-68
2023/06/30 03:33:36;;;;;;;3.60;2.93;;;21.80;99.90;;;22.17;nan;100073.97;4988414;28;20643;-68
2023/06/30 03:36:04;;;;;;;4.00;2.87;;;21.70;99.90;;;22.14;nan;100087.66;4980313;28;21086;-66
2023/06/30 03:38:31;;;;;;;3.77;2.63;;;21.70;99.90;;;22.10;nan;100097.88;4995782;28;20693;-69
2023/06/30 03:40:58;;;;;;;3.63;3.33;;;21.60;99.90;;;22.12;nan;100105.66;4994729;28;20639;-69
2023/06/30 03:43:25;;;;;;;3.33;3.03;;;21.70;99.90;;;22.11;nan;100127.91;4989042;28;20646;-68
2023/06/30 03:45:52;;;;;;;3.13;2.83;;;21.70;99.90;;;22.10;nan;100128.94;4990703;28;20654;-68
2023/06/30 03:48:20;;;;;;;3.50;3.20;;;21.60;99.90;;;22.04;nan;100113.78;4998967;28;20638;-68
2023/06/30 03:50:52;;;;;;;3.47;3.17;;;21.60;99.90;;;22.05;nan;100123.38;4989746;28;20642;-67
2023/06/30 03:53:20;;;;;;;5.00;3.27;;;21.60;99.90;;;22.07;nan;100124.84;4970988;28;20642;-65
2023/06/30 03:55:47;;;;;;;6.13;3.37;;;21.60;99.90;;;22.09;nan;100129.94;4991684;28;20662;-65
2023/06/30 03:58:14;;;;;;;4.70;3.60;;;21.60;99.90;;;22.06;nan;100111.75;4993545;28;20675;-65
2023/06/30 04:00:41;;;;;;;7.93;4.57;;;21.60;99.90;;;22.05;nan;100104.78;4989845;28;20638;-68
2023/06/30 04:03:08;;;;;;;4.70;3.70;;;21.60;99.90;;;22.04;nan;100095.19;4992963;28;20610;-67
2023/06/30 04:05:35;;;;;;;5.23;3.77;;;21.60;99.90;;;22.02;nan;100086.59;4990725;28;21323;-67
2023/06/30 04:08:03;;;;;;;9.03;5.47;;;21.60;99.90;;;22.00;nan;100092.09;4975006;28;20633;-68
2023/06/30 04:10:30;;;;;;;6.77;4.87;;;21.50;99.90;;;22.04;nan;100084.56;4993043;28;20622;-68
2023/06/30 04:12:57;;;;;;;8.00;5.23;;;21.60;99.90;;;22.10;nan;100086.44;4990483;28;20642;-66
2023/06/30 04:15:24;;;;;;;9.30;6.03;;;21.60;99.90;;;22.15;nan;100097.25;4989551;28;21391;-67
2023/06/30 04:17:51;;;;;;;10.43;5.93;;;21.70;99.90;;;22.19;nan;100095.88;4990976;28;20673;-67
2023/06/30 04:20:18;;;;;;;11.73;5.73;;;21.70;99.90;;;22.21;nan;100097.28;4991310;28;20644;-68
2023/06/30 04:22:45;;;;;;;8.40;5.20;;;21.80;99.90;;;22.20;nan;100097.50;4993002;28;20595;-68
2023/06/30 04:25:12;;;;;;;13.33;5.40;;;21.80;99.90;;;22.19;nan;100093.22;4990824;28;20642;-67
2023/06/30 04:27:39;;;;;;;13.30;7.33;;;21.80;99.90;;;22.16;nan;100090.94;4992092;28;20645;-67
2023/06/30 04:30:08;;;;;;;11.10;7.53;;;21.70;99.90;;;22.19;nan;100101.19;4991755;28;20630;-68
2023/06/30 04:32:35;;;;;;;7.00;5.50;;;21.70;99.90;;;22.22;nan;100100.78;4992709;28;20618;-67
2023/06/30 04:35:03;;;;;;;6.47;5.50;;;21.80;99.90;;;22.27;nan;100090.38;4990503;28;21047;-67
2023/06/30 04:37:30;;;;;;;6.33;5.40;;;21.80;99.90;;;22.29;nan;100085.69;4992454;28;20673;-68
2023/06/30 04:39:58;;;;;;;8.90;6.20;;;21.80;99.90;;;22.28;nan;100081.38;4991119;28;20706;-66
2023/06/30 04:42:28;;;;;;;7.60;4.97;;;21.80;99.90;;;22.29;nan;100091.00;4999989;28;21093;-68
2023/06/30 04:44:55;;;;;;;8.40;6.20;;;21.80;99.90;;;22.32;nan;100088.75;4989534;28;20642;-67
2023/06/30 04:47:22;;;;;;;9.77;6.97;;;21.90;99.90;;;22.36;nan;100089.16;4993013;28;20670;-68
2023/06/30 04:49:49;;;;;;;7.83;5.50;;;21.90;99.90;;;22.41;nan;100089.41;4989635;28;20642;-67
2023/06/30 04:52:16;;;;;;;12.17;6.27;;;21.90;99.90;;;22.47;nan;100087.81;4991429;28;21185;-67
2023/06/30 04:54:43;;;;;;;10.57;6.03;;;22.00;99.90;;;22.50;nan;100087.38;4985411;28;20723;-67
2023/06/30 04:57:11;;;;;;;11.37;6.70;;;22.00;99.90;;;22.54;nan;100094.78;4990854;28;21253;-67
2023/06/30 04:59:38;;;;;;;9.80;6.80;;;22.10;99.90;;;22.58;nan;100089.88;4989916;28;20633;-67
2023/06/30 05:02:05;;;;;;;7.87;6.10;;;22.10;99.90;;;22.66;nan;100087.06;4988112;28;20618;-67
2023/06/30 05:04:32;;;;;;;10.90;6.10;;;22.10;99.90;;;22.71;nan;100079.28;4989955;28;20986;-68
2023/06/30 05:06:59;;;;;;;12.07;6.47;;;22.20;99.90;;;22.76;nan;100076.84;4991076;28;20658;-67
2023/06/30 05:09:26;;;;;;;9.30;5.53;;;22.20;99.90;;;22.85;nan;100075.66;4990543;28;20634;-67
2023/06/30 05:11:53;;;;;;;11.43;6.30;;;22.30;99.90;;;22.91;nan;100080.94;4984128;28;20642;-67
2023/06/30 05:14:20;;;;;;;8.87;6.33;;;22.40;99.90;;;22.98;nan;100076.47;4986435;28;20642;-66
2023/06/30 05:16:47;;;;;;;10.90;6.30;;;22.50;99.90;;;23.07;nan;100079.75;4985022;28;20666;-65
2023/06/30 05:19:14;;;;;;;10.33;6.87;;;22.50;99.90;;;23.16;nan;100086.50;4987376;28;20638;-66
2023/06/30 05:21:41;;;;;;;11.70;7.43;;;22.70;99.90;;;23.24;nan;100090.81;4992792;28;20680;-67
2023/06/30 05:24:08;;;;;;;10.87;6.40;;;22.80;99.90;;;23.21;nan;100088.56;4988800;28;20642;-66
2023/06/30 05:26:36;;;;;;;13.00;8.40;;;22.70;99.90;;;23.23;nan;100087.34;4994246;28;20670;-66
2023/06/30 05:29:04;;;;;;;11.40;7.17;;;22.80;99.90;;;23.32;nan;100101.28;4991344;28;20618;-67
2023/06/30 05:31:32;;;;;;;7.93;5.40;;;22.80;99.90;;;23.33;nan;100097.59;4989811;28;20653;-66
2023/06/30 05:33:59;;;;;;;14.23;8.10;;;22.90;99.90;;;23.31;nan;100102.28;4971529;28;20630;-66
2023/06/30 05:36:26;;;;;;;12.37;7.63;;;22.80;99.90;;;23.30;nan;100100.66;4977233;28;21193;-65
2023/06/30 05:38:53;;;;;;;13.27;8.90;;;22.90;99.90;;;23.37;nan;100106.81;4991239;28;21040;-66
2023/06/30 05:41:20;;;;;;;12.87;8.10;;;22.90;99.90;;;23.47;nan;100107.22;4999692;28;20645;-66
2023/06/30 05:43:47;;;;;;;11.90;7.47;;;23.00;99.90;;;23.57;nan;100107.63;4994106;28;20632;-66
2023/06/30 05:46:14;;;;;;;14.83;8.47;;;23.10;99.90;;;23.66;nan;100111.72;4979578;28;21234;-67
2023/06/30 05:48:41;;;;;;;19.40;10.37;;;23.20;99.90;;;23.72;nan;100111.69;4992169;28;21386;-67
2023/06/30 05:51:08;;;;;;;19.90;10.80;;;23.30;99.90;;;23.73;nan;100108.00;4996272;28;20678;-66
2023/06/30 05:53:35;;;;;;;22.17;10.97;;;23.30;99.90;;;23.84;nan;100114.53;4995114;28;21197;-66
2023/06/30 05:56:02;;;;;;;22.00;11.80;;;23.40;99.90;;;23.89;nan;100117.41;4987081;28;20666;-67
2023/06/30 05:58:29;;;;;;;22.17;11.63;;;23.40;99.90;;;23.94;nan;100125.59;4988701;28;20658;-67
2023/06/30 06:00:59;;;;;;;19.13;9.80;;;23.50;99.90;;;24.03;nan;100116.34;4988470;28;20634;-67
2023/06/30 06:03:30;;;;;;;21.87;10.90;;;23.50;99.90;;;24.14;nan;100131.72;4989344;28;20633;-66
2023/06/30 06:05:57;;;;;;;27.17;12.60;;;23.60;99.90;;;24.32;nan;100134.50;4988737;28;20654;-67
2023/06/30 06:08:24;;;;;;;19.80;9.53;;;23.80;99.90;;;24.51;nan;100133.63;4991151;28;20630;-67
2023/06/30 06:10:51;;;;;;;21.80;11.37;;;24.00;99.90;;;24.68;nan;100140.09;4982916;28;21220;-64
2023/06/30 06:13:32;;;;;;;22.47;11.20;;;24.10;99.90;;;24.85;nan;100143.13;4988782;28;20634;-65
2023/06/30 06:16:00;;;;;;;21.00;10.87;;;24.30;99.90;;;25.07;nan;100147.09;4988095;28;20646;-66
2023/06/30 06:18:27;;;;;;;28.50;11.90;;;24.50;99.90;;;25.31;nan;100145.47;4973376;28;20676;-67
2023/06/30 06:20:55;;;;;;;19.53;11.03;;;24.80;99.90;;;25.53;nan;100132.59;4990075;28;21038;-68
2023/06/30 06:23:23;;;;;;;28.97;14.20;;;24.90;99.90;;;25.63;nan;100136.41;4988043;28;20642;-69
2023/06/30 06:25:50;;;;;;;15.77;8.97;;;25.10;99.90;;;25.59;nan;100135.22;4990127;28;20685;-66
2023/06/30 06:28:17;;;;;;;22.80;12.90;;;25.10;99.90;;;25.60;nan;100136.03;4985591;28;20649;-67
2023/06/30 06:30:45;;;;;;;23.33;12.03;;;25.10;99.90;;;25.51;nan;100134.69;4972944;28;20727;-68
2023/06/30 06:33:12;;;;;;;19.07;10.80;;;25.00;99.90;;;25.40;nan;100137.00;5005191;28;20636;-67
2023/06/30 06:35:39;;;;;;;26.80;14.00;;;24.90;99.90;;;25.32;nan;100139.13;4990762;28;20673;-67
2023/06/30 06:38:06;;;;;;;25.10;12.77;;;24.90;99.90;;;25.26;nan;100142.63;4988206;28;21467;-67
2023/06/30 06:40:34;;;;;;;25.17;13.20;;;24.80;99.90;;;25.27;nan;100149.63;4988775;28;20630;-67
2023/06/30 06:43:01;;;;;;;24.70;13.70;;;24.80;99.90;;;25.25;nan;100149.03;4999004;28;20602;-66
2023/06/30 06:45:28;;;;;;;25.20;11.10;;;24.80;99.90;;;25.25;nan;100149.84;4991516;28;21404;-67
2023/06/30 06:48:16;;;;;;;23.13;12.33;;;24.80;99.90;;;25.20;nan;100162.19;4990074;28;20693;-67
2023/06/30 06:50:44;;;;;;;20.50;9.87;;;24.70;99.90;;;25.14;nan;100168.41;4987287;28;20643;-67
2023/06/30 06:53:18;;;;;;;23.40;9.87;;;24.70;99.90;;;25.01;nan;100173.81;4988555;28;20618;-66
2023/06/30 06:55:50;;;;;;;25.80;13.83;;;24.50;99.90;;;24.96;nan;100168.31;4971430;28;20682;-67
2023/06/30 06:58:19;;;;;;;28.07;13.87;;;24.50;99.90;;;24.95;nan;100167.50;4987799;28;20650;-68
2023/06/30 07:00:48;;;;;;;30.73;12.47;;;24.50;99.90;;;24.99;nan;100175.88;4990026;28;20669;-67
2023/06/30 07:03:16;;;;;;;20.73;11.27;;;24.50;99.90;;;25.03;nan;100179.75;4987169;28;20650;-68
2023/06/30 07:05:46;;;;;;;25.40;13.80;;;24.50;99.90;;;24.94;nan;100175.69;4991703;28;20661;-66
2023/06/30 07:08:15;;;;;;;33.67;14.97;;;24.50;99.90;;;24.79;nan;100176.00;4992874;28;21271;-67
2023/06/30 07:10:44;;;;;;;21.40;11.60;;;24.40;99.90;;;24.70;nan;100173.75;4970338;28;21053;-65
2023/06/30 07:13:14;;;;;;;35.33;13.87;;;24.30;99.90;;;24.63;nan;100173.78;4986758;28;20641;-65
2023/06/30 07:15:41;;;;;;;20.43;10.03;;;24.20;99.90;;;24.48;nan;100170.56;4971582;28;20647;-65
2023/06/30 07:18:08;;;;;;;25.67;12.83;;;24.00;99.90;;;24.42;nan;100174.91;4981928;28;20704;-65
2023/06/30 07:20:35;;;;;;;22.50;10.83;;;24.00;99.90;;;24.37;nan;100182.72;4986430;28;20642;-67
2023/06/30 07:23:02;;;;;;;21.17;10.00;;;24.00;99.90;;;24.28;nan;100183.97;4989100;28;20623;-65
2023/06/30 07:25:29;;;;;;;13.87;6.80;;;23.90;99.90;;;24.22;nan;100174.13;4983035;28;20638;-67
2023/06/30 07:27:58;;;;;;;16.00;8.10;;;23.80;99.90;;;24.09;nan;100184.81;4987243;28;20661;-64
2023/06/30 07:30:27;;;;;;;10.90;6.87;;;23.70;99.90;;;23.87;nan;100178.09;4991217;28;20638;-64
2023/06/30 07:32:57;;;;;;;13.77;6.57;;;23.50;99.90;;;23.76;nan;100178.69;4996675;28;20618;-66
2023/06/30 07:35:24;;;;;;;16.83;7.87;;;23.40;99.90;;;23.79;nan;100187.09;5003929;28;20645;-66
2023/06/30 07:37:51;;;;;;;8.47;5.67;;;23.40;99.90;;;23.89;nan;100192.00;5006478;28;21038;-64
2023/06/30 07:40:18;;;;;;;12.10;5.27;;;23.40;99.90;;;23.89;nan;100192.00;4976527;28;20614;-65
2023/06/30 07:42:48;;;;;;;25.63;12.30;;;23.40;99.90;;;23.92;nan;100184.41;4991352;28;20642;-64
2023/06/30 07:45:16;;;;;;;18.47;8.00;;;23.50;99.90;;;24.05;nan;100196.94;4999819;28;21201;-65
2023/06/30 07:47:47;;;;;;;17.30;8.97;;;23.60;99.90;;;24.11;nan;100197.94;4997465;28;20630;-67
2023/06/30 07:50:16;;;;;;;10.80;5.43;;;23.60;99.90;;;24.13;nan;100198.56;4987616;28;20626;-65
2023/06/30 07:52:48;;;;;;;12.17;7.13;;;23.70;99.90;;;24.13;nan;100202.03;4997494;28;20614;-64
2023/06/30 07:55:17;;;;;;;18.93;8.53;;;23.70;99.90;;;24.06;nan;100203.91;4990407;28;20618;-65
2023/06/30 07:57:46;;;;;;;14.67;8.27;;;23.60;99.90;;;24.02;nan;100196.50;4990860;28;20629;-67
2023/06/30 08:00:15;;;;;;;17.03;6.50;;;23.60;99.90;;;24.01;nan;100194.84;4992631;28;20618;-65
2023/06/30 08:02:43;;;;;;;4.70;3.30;;;23.60;99.90;;;23.89;nan;100194.69;4974363;28;20626;-63
2023/06/30 08:05:10;;;;;;;7.40;4.63;;;23.50;99.90;;;23.73;nan;100195.09;4975655;28;20626;-64
2023/06/30 08:07:37;;;;;;;5.37;2.40;;;23.30;99.90;;;23.62;nan;100201.03;4991352;28;20704;-65
2023/06/30 08:10:14;;;;;;;5.07;3.77;;;23.30;99.90;;;23.43;nan;100202.66;4973851;28;20623;-67
2023/06/30 08:12:41;;;;;;;2.93;2.63;;;23.10;99.90;;;23.38;nan;100213.13;4972664;28;20619;-67
2023/06/30 08:15:09;;;;;;;3.00;2.73;;;23.00;99.90;;;23.24;nan;100213.25;4992898;28;20606;-66
2023/06/30 08:17:36;;;;;;;0.90;0.90;;;22.90;99.90;;;23.16;nan;100208.94;4992363;28;20656;-65
2023/06/30 08:20:20;;;;;;;4.70;3.40;;;22.80;99.90;;;23.05;nan;100214.84;4992634;28;20618;-65
2023/06/30 08:22:47;;;;;;;3.70;3.07;;;22.70;99.90;;;22.91;nan;100221.16;4992383;28;20648;-66
2023/06/30 08:25:14;;;;;;;2.50;2.30;;;22.60;99.90;;;22.72;nan;100221.91;4990850;28;21032;-66
2023/06/30 08:27:41;;;;;;;5.37;3.80;;;22.40;99.90;;;22.64;nan;100228.19;4975291;28;21232;-66
2023/06/30 08:30:08;;;;;;;5.60;3.90;;;22.30;99.90;;;22.53;nan;100230.56;4990717;28;20646;-65
2023/06/30 08:32:35;;;;;;;9.90;4.10;;;22.20;99.90;;;22.56;nan;100238.13;4991872;28;20637;-65
2023/06/30 08:35:02;;;;;;;4.27;3.10;;;22.20;99.90;;;22.53;nan;100239.34;4994092;28;21174;-65
2023/06/30 08:37:29;;;;;;;3.10;2.30;;;22.20;99.90;;;22.59;nan;100235.13;4991719;28;20661;-65
2023/06/30 08:39:56;;;;;;;3.53;2.83;;;22.20;99.90;;;22.65;nan;100235.16;4989930;28;20722;-65
2023/06/30 08:42:28;;;;;;;3.90;2.67;;;22.20;99.90;;;22.71;nan;100245.00;4995234;28;20633;-67
2023/06/30 08:44:57;;;;;;;2.70;2.07;;;22.30;99.90;;;22.69;nan;100247.03;4997826;28;20639;-65
2023/06/30 08:47:28;;;;;;;4.13;2.10;;;22.30;99.90;;;22.62;nan;100248.00;4991812;28;21158;-65
2023/06/30 08:49:56;;;;;;;2.27;2.10;;;22.20;99.90;;;22.59;nan;100251.91;4977064;28;20820;-65
2023/06/30 08:52:23;;;;;;;2.50;1.70;;;22.20;99.90;;;22.51;nan;100249.34;4994698;28;20628;-66
2023/06/30 08:54:50;;;;;;;1.70;1.60;;;22.10;99.90;;;22.50;nan;100258.38;5007162;28;21224;-65
2023/06/30 08:57:17;;;;;;;2.30;2.10;;;22.10;99.90;;;22.56;nan;100254.91;5007120;28;20678;-66
2023/06/30 08:59:45;;;;;;;2.50;2.30;;;22.10;99.90;;;22.53;nan;100263.28;4995050;28;20674;-65
2023/06/30 09:02:13;;;;;;;2.23;2.10;;;22.20;99.90;;;22.46;nan;100261.59;4981142;28;20634;-66
2023/06/30 09:04:41;;;;;;;1.70;1.60;;;22.10;99.90;;;22.39;nan;100257.06;4986434;28;20634;-66
2023/06/30 09:07:16;;;;;;;1.43;1.33;;;22.00;99.90;;;22.32;nan;100252.72;5010852;28;21241;-65
2023/06/30 09:09:45;;;;;;;2.80;1.30;;;21.90;99.90;;;22.22;nan;100260.22;4972034;28;20638;-65
2023/06/30 09:12:14;;;;;;;1.80;1.70;;;21.90;99.90;;;22.09;nan;100260.13;4955976;28;20645;-66
2023/06/30 09:14:44;;;;;;;1.57;1.47;;;21.70;99.90;;;22.02;nan;100267.25;4973581;28;21169;-65
2023/06/30 09:17:12;;;;;;;2.07;1.77;;;21.70;99.90;;;22.01;nan;100254.97;4973496;28;20702;-64
2023/06/30 09:19:39;;;;;;;1.27;1.17;;;21.60;99.90;;;21.90;nan;100261.63;4988775;28;20685;-64
2023/06/30 09:22:09;;;;;;;1.77;1.13;;;21.50;99.90;;;21.83;nan;100267.91;4970370;28;20621;-65
2023/06/30 09:24:55;;;;;;;3.40;2.30;;;21.50;99.90;;;21.84;nan;100254.44;4989841;28;20633;-65
2023/06/30 09:27:27;;;;;;;1.53;1.50;;;21.50;99.90;;;21.86;nan;100259.53;4987989;28;21127;-67
2023/06/30 09:29:55;;;;;;;1.30;1.30;;;21.50;99.90;;;21.88;nan;100260.16;4993428;28;20646;-64
2023/06/30 09:32:31;;;;;;;1.17;1.07;;;21.50;99.90;;;21.90;nan;100263.44;5002505;28;20651;-66
2023/06/30 09:35:09;;;;;;;1.27;1.17;;;21.50;99.90;;;21.86;nan;100254.22;4991443;28;20687;-65
2023/06/30 09:37:45;;;;;;;2.00;1.80;;;21.50;99.90;;;21.84;nan;100256.25;4988134;28;20681;-66
2023/06/30 09:40:15;;;;;;;2.97;1.40;;;21.40;99.90;;;21.82;nan;100255.59;4991415;28;20665;-67
2023/06/30 09:42:45;;;;;;;1.60;1.50;;;21.40;99.90;;;21.87;nan;100259.34;4990725;28;20644;-65
2023/06/30 09:45:14;;;;;;;1.23;1.20;;;21.50;99.90;;;22.06;nan;100260.53;4993235;28;20635;-65
2023/06/30 09:47:41;;;;;;;2.00;1.60;;;21.60;99.90;;;22.28;nan;100254.94;4991790;28;20662;-65
2023/06/30 09:50:10;;;;;;;1.57;1.27;;;21.80;99.90;;;22.54;nan;100242.84;4971368;28;20646;-68
2023/06/30 09:52:37;;;;;;;1.80;1.70;;;22.00;99.90;;;22.76;nan;100241.75;5002325;28;20648;-67
2023/06/30 09:55:14;;;;;;;1.87;1.77;;;22.30;99.90;;;22.91;nan;100245.88;4987909;28;21122;-67
2023/06/30 09:57:43;;;;;;;2.70;2.17;;;22.40;99.90;;;23.03;nan;100240.81;4991519;28;20658;-66
2023/06/30 10:00:16;;;;;;;2.37;1.80;;;22.50;99.90;;;23.19;nan;100250.31;4987893;28;20666;-68
2023/06/30 10:03:05;;;;;;;2.10;2.00;;;22.70;99.90;;;23.32;nan;100245.00;4989741;28;20676;-65
2023/06/30 10:05:32;;;;;;;2.23;2.00;;;22.80;99.90;;;23.46;nan;100246.69;4981229;28;20640;-66
2023/06/30 10:08:01;;;;;;;2.83;1.70;;;23.00;99.90;;;23.54;nan;100252.66;4989283;28;20590;-65
2023/06/30 10:10:29;;;;;;;1.93;1.83;;;23.10;99.90;;;23.65;nan;100254.72;4990941;28;21027;-65
2023/06/30 10:12:58;;;;;;;1.27;1.27;;;23.20;99.90;;;23.76;nan;100247.97;4976827;28;20714;-65
2023/06/30 10:15:26;;;;;;;1.80;1.70;;;23.30;99.90;;;23.79;nan;100256.34;4987768;28;20649;-66
2023/06/30 10:17:54;;;;;;;2.40;1.80;;;23.30;99.90;;;23.85;nan;100247.53;4990492;28;20617;-68
2023/06/30 10:20:22;;;;;;;2.03;1.80;;;23.40;99.90;;;23.96;nan;100251.44;4980071;28;21314;-65
2023/06/30 10:23:01;;;;;;;1.90;1.80;;;23.50;99.90;;;24.03;nan;100254.09;4989318;28;20591;-66
2023/06/30 10:25:30;;;;;;;2.27;2.17;;;23.60;99.90;;;24.12;nan;100256.38;4992720;28;21280;-67
2023/06/30 10:27:58;;;;;;;2.37;2.17;;;23.70;99.90;;;24.23;nan;100257.59;4973604;28;20625;-66